Time;durP1;ratioP1;P1;durP2;ratioP2;P2;SDS_P1;SDS_P2;PMS_P1;PMS_P2;Temp;Humidity;BMP_temperature;BMP_pressure;BME280_temperature;BME280_humidity;BME280_pressure;Samples;Min_cycle;Max_cycle;Signal;HPM_P1;HPM_P2
2022/11/06 00:00:24;;;;;;;;;;;;;;;;;;5092573;28;19931;-40
2022/11/06 00:02:50;;;;;;;;;;;;;;;;;;5073389;28;19909;-40
2022/11/06 00:08:00;;;;;;;;;;;;;;;;;;5071616;28;19907;-40
2022/11/06 00:10:26;;;;;;;;;;;;;;;;;;5072261;28;19905;-40
2022/11/06 00:12:52;;;;;;;;;;;;;;;;;;5070425;28;19900;-40
2022/11/06 00:15:18;;;;;;;;;;;;;;;;;;5071442;28;20031;-40
2022/11/06 00:17:44;;;;;;;;;;;;;;;;;;5089382;28;19908;-40
2022/11/06 00:20:10;;;;;;;;;;;;;;;;;;5091600;28;19904;-40
2022/11/06 00:22:36;;;;;;;;;;;;;;;;;;5092025;28;19904;-40
2022/11/06 00:25:01;;;;;;;;;;;;;;;;;;5091654;28;19911;-40
2022/11/06 00:27:27;;;;;;;;;;;;;;;;;;5090887;28;19935;-40
2022/11/06 00:29:53;;;;;;;;;;;;;;;;;;5091362;28;20002;-40
2022/11/06 00:32:19;;;;;;;;;;;;;;;;;;5091496;28;19911;-40
2022/11/06 00:34:45;;;;;;;;;;;;;;;;;;5091240;28;19966;-40
2022/11/06 00:37:11;;;;;;;;;;;;;;;;;;5091476;28;19901;-39
2022/11/06 00:39:37;;;;;;;;;;;;;;;;;;5091396;28;20275;-40
2022/11/06 00:42:03;;;;;;;;;;;;;;;;;;5088483;28;19908;-40
2022/11/06 00:44:28;;;;;;;;;;;;;;;;;;5071504;28;20421;-40
2022/11/06 00:46:54;;;;;;;;;;;;;;;;;;5070976;28;19904;-40
2022/11/06 00:49:20;;;;;;;;;;;;;;;;;;5071183;28;20320;-40
2022/11/06 00:51:46;;;;;;;;;;;;;;;;;;5070852;28;19910;-40
2022/11/06 00:54:12;;;;;;;;;;;;;;;;;;5070986;28;19907;-40
2022/11/06 06:03:37;;;;;;;;;;;;;;;;;;5091360;28;19961;-40
2022/11/06 06:06:03;;;;;;;;;;;;;;;;;;5091407;28;20383;-40
2022/11/06 06:08:28;;;;;;;;;;;;;;;;;;5091337;28;19978;-40
2022/11/06 06:10:54;;;;;;;;;;;;;;;;;;5090797;28;19926;-40
2022/11/06 06:13:20;;;;;;;;;;;;;;;;;;5091628;28;19958;-40
2022/11/06 06:15:46;;;;;;;;;;;;;;;;;;5091296;28;20291;-40
2022/11/06 06:18:12;;;;;;;;;;;;;;;;;;5091054;28;19905;-39
2022/11/06 06:20:38;;;;;;;;;;;;;;;;;;5091361;28;20392;-39
2022/11/06 06:23:04;;;;;;;;;;;;;;;;;;5091197;28;20371;-39
2022/11/06 06:25:30;;;;;;;;;;;;;;;;;;5091258;28;20382;-39
2022/11/06 06:27:56;;;;;;;;;;;;;;;;;;5091437;28;20389;-39
2022/11/06 06:30:22;;;;;;;;;;;;;;;;;;5091071;28;19908;-39
2022/11/06 06:32:48;;;;;;;;;;;;;;;;;;5090943;28;20330;-39
2022/11/06 06:35:14;;;;;;;;;;;;;;;;;;5091151;28;19904;-40
2022/11/06 06:37:39;;;;;;;;;;;;;;;;;;5090986;28;19904;-39
2022/11/06 06:40:05;;;;;;;;;;;;;;;;;;5090938;28;20334;-39
2022/11/06 06:42:31;;;;;;;;;;;;;;;;;;5090837;28;20126;-39
2022/11/06 06:44:57;;;;;;;;;;;;;;;;;;5091193;28;20442;-40
2022/11/06 06:47:23;;;;;;;;;;;;;;;;;;5090803;28;19923;-40
2022/11/06 06:49:49;;;;;;;;;;;;;;;;;;5090815;28;19911;-40
2022/11/06 06:52:15;;;;;;;;;;;;;;;;;;5090828;28;19911;-40
2022/11/06 06:54:41;;;;;;;;;;;;;;;;;;5090828;28;19911;-40
2022/11/06 06:57:06;;;;;;;;;;;;;;;;;;5090858;28;19982;-40
2022/11/06 06:59:32;;;;;;;;;;;;;;;;;;5090754;28;20056;-39
2022/11/06 07:01:58;;;;;;;;;;;;;;;;;;5090850;28;19908;-40
2022/11/06 07:04:24;;;;;;;;;;;;;;;;;;5090679;28;19912;-39
2022/11/06 07:06:50;;;;;;;;;;;;;;;;;;5090623;28;19970;-40
2022/11/06 07:09:16;;;;;;;;;;;;;;;;;;5090694;28;19900;-40
2022/11/06 07:11:42;;;;;;;;;;;;;;;;;;5090574;28;20421;-40
2022/11/06 07:14:08;;;;;;;;;;;;;;;;;;5090627;28;19942;-39
2022/11/06 07:16:33;;;;;;;;;;;;;;;;;;5090478;28;19904;-40
2022/11/06 07:18:59;;;;;;;;;;;;;;;;;;5091157;28;19908;-40
2022/11/06 07:21:25;;;;;;;;;;;;;;;;;;5091568;28;19908;-39
2022/11/06 07:23:51;;;;;;;;;;;;;;;;;;5094588;28;19943;-40
2022/11/06 07:26:17;;;;;;;;;;;;;;;;;;5094621;28;19908;-40
2022/11/06 07:28:43;;;;;;;;;;;;;;;;;;5094520;28;20379;-40
2022/11/06 07:31:11;;;;;;;;;;;;;;;;;;5094349;28;19999;-40
2022/11/06 07:33:37;;;;;;;;;;;;;;;;;;5094304;28;19908;-40
2022/11/06 07:36:03;;;;;;;;;;;;;;;;;;5094255;28;20264;-40
2022/11/06 07:38:29;;;;;;;;;;;;;;;;;;5094472;28;19912;-40
2022/11/06 07:40:55;;;;;;;;;;;;;;;;;;5094063;28;20283;-39
2022/11/06 07:43:23;;;;;;;;;;;;;;;;;;5094227;28;20105;-39
2022/11/06 07:45:49;;;;;;;;;;;;;;;;;;5094608;28;19950;-39
2022/11/06 07:48:15;;;;;;;;;;;;;;;;;;5094105;28;19904;-40
2022/11/06 07:50:41;;;;;;;;;;;;;;;;;;5094064;28;20326;-40
2022/11/06 07:53:07;;;;;;;;;;;;;;;;;;5094041;28;20011;-39
2022/11/06 07:55:32;;;;;;;;;;;;;;;;;;5082252;28;20414;-40
2022/11/06 07:57:58;;;;;;;;;;;;;;;;;;5115279;28;19907;-39
2022/11/06 08:00:24;;;;;;;;;;;;;;;;;;5106877;28;19904;-40
2022/11/06 08:02:51;;;;;;;;;;;;;;;;;;5092624;28;20425;-40
2022/11/06 08:05:17;;;;;;;;;;;;;;;;;;5092772;28;19959;-40
2022/11/06 08:07:43;;;;;;;;;;;;;;;;;;5092517;28;19963;-40
2022/11/06 08:10:09;;;;;;;;;;;;;;;;;;5092819;28;19904;-40
2022/11/06 08:12:35;;;;;;;;;;;;;;;;;;5100570;28;19904;-40
2022/11/06 08:15:01;;;;;;;;;;;;;;;;;;5113125;28;19908;-40
2022/11/06 08:17:28;;;;;;;;;;;;;;;;;;5113074;28;19931;-40
2022/11/06 08:19:54;;;;;;;;;;;;;;;;;;5092187;28;19912;-40
2022/11/06 08:22:20;;;;;;;;;;;;;;;;;;5092385;28;20006;-40
2022/11/06 08:24:46;;;;;;;;;;;;;;;;;;5103353;28;19912;-40
2022/11/06 08:27:12;;;;;;;;;;;;;;;;;;5095990;28;19904;-40
2022/11/06 08:29:38;;;;;;;;;;;;;;;;;;5092867;28;19904;-40
2022/11/06 08:32:04;;;;;;;;;;;;;;;;;;5092214;28;20236;-40
2022/11/06 08:34:30;;;;;;;;;;;;;;;;;;5091456;28;19911;-40
2022/11/06 08:36:56;;;;;;;;;;;;;;;;;;5092210;28;20272;-40
2022/11/06 08:39:21;;;;;;;;;;;;;;;;;;5092222;28;19950;-40
2022/11/06 08:41:47;;;;;;;;;;;;;;;;;;5082303;28;19916;-40
2022/11/06 08:44:13;;;;;;;;;;;;;;;;;;5072336;28;19935;-40
2022/11/06 08:46:39;;;;;;;;;;;;;;;;;;5072658;28;19911;-40
2022/11/06 08:49:05;;;;;;;;;;;;;;;;;;5071931;28;19908;-40
2022/11/06 08:51:31;;;;;;;;;;;;;;;;;;5071709;28;19932;-40
2022/11/06 08:53:57;;;;;;;;;;;;;;;;;;5081671;28;19912;-40
2022/11/06 08:56:23;;;;;;;;;;;;;;;;;;5091820;28;19910;-40
2022/11/06 08:58:49;;;;;;;;;;;;;;;;;;5091933;28;20320;-40
2022/11/06 09:01:15;;;;;;;;;;;;;;;;;;5091807;28;19908;-40
2022/11/06 09:03:40;;;;;;;;;;;;;;;;;;5090726;28;20387;-40
2022/11/06 09:06:07;;;;;;;;;;;;;;;;;;5066762;28;19947;-40
2022/11/06 09:08:33;;;;;;;;;;;;;;;;;;5089112;28;19965;-40
2022/11/06 09:10:59;;;;;;;;;;;;;;;;;;5089249;28;19908;-40
2022/11/06 09:13:25;;;;;;;;;;;;;;;;;;5089227;28;19904;-40
2022/11/06 09:15:51;;;;;;;;;;;;;;;;;;5077097;28;19909;-40
2022/11/06 09:18:17;;;;;;;;;;;;;;;;;;5069460;28;19904;-40
2022/11/06 09:20:43;;;;;;;;;;;;;;;;;;5070055;28;19908;-40
2022/11/06 09:23:09;;;;;;;;;;;;;;;;;;5070085;28;19905;-40
2022/11/06 09:25:35;;;;;;;;;;;;;;;;;;5072437;28;20295;-40
2022/11/06 09:28:02;;;;;;;;;;;;;;;;;;5088457;28;19953;-40
2022/11/06 09:30:29;;;;;;;;;;;;;;;;;;5110096;28;19930;-40
2022/11/06 09:32:54;;;;;;;;;;;;;;;;;;5098593;28;19908;-40
2022/11/06 09:35:20;;;;;;;;;;;;;;;;;;5089693;28;19931;-40
2022/11/06 09:37:46;;;;;;;;;;;;;;;;;;5089266;28;19926;-40
2022/11/06 09:40:12;;;;;;;;;;;;;;;;;;5090157;28;19908;-40
2022/11/06 09:42:38;;;;;;;;;;;;;;;;;;5089967;28;19908;-40
2022/11/06 09:45:04;;;;;;;;;;;;;;;;;;5088521;28;19934;-40
2022/11/06 09:47:30;;;;;;;;;;;;;;;;;;5089528;28;19908;-40
2022/11/06 09:49:57;;;;;;;;;;;;;;;;;;5089350;28;19949;-41
2022/11/06 09:52:23;;;;;;;;;;;;;;;;;;5089231;28;19962;-40
2022/11/06 09:54:49;;;;;;;;;;;;;;;;;;5089292;28;20375;-40
2022/11/06 09:57:15;;;;;;;;;;;;;;;;;;5089236;28;19903;-40
2022/11/06 09:59:41;;;;;;;;;;;;;;;;;;5089836;28;19904;-40
2022/11/06 10:02:07;;;;;;;;;;;;;;;;;;5075154;28;20287;-40
2022/11/06 10:04:33;;;;;;;;;;;;;;;;;;5089407;28;19910;-40
2022/11/06 10:06:59;;;;;;;0.93;0.90;;;;;;;;;;5068445;28;20413;-40
2022/11/06 10:09:25;;;;;;;0.98;0.88;;;;;;;;;;5068356;28;20032;-40
2022/11/06 10:11:51;;;;;;;1.10;1.00;;;;;;;;;;5069192;28;20039;-40
2022/11/06 10:14:17;;;;;;;1.35;1.20;;;;;;;;;;5068400;28;20031;-40
2022/11/06 10:16:46;;;;;;;1.95;1.30;;;;;;;;;;5068191;28;20113;-40
2022/11/06 10:19:12;;;;;;;;;;;;;;;;;;5068565;28;20063;-40
2022/11/06 10:21:38;;;;;;;;;;;;;;;;;;5091655;28;19950;-40
2022/11/06 10:24:04;;;;;;;;;;;;;;;;;;5109093;28;19926;-40
2022/11/06 10:26:31;;;;;;;;;;;;;;;;;;5083209;28;19908;-40
2022/11/06 10:28:57;;;;;;;;;;;;;;;;;;5087476;28;19908;-40
2022/11/06 10:31:23;;;;;;;;;;;;;;;;;;5088681;28;20007;-40
2022/11/06 10:33:49;;;;;;;;;;;;;;;;;;5088883;28;19904;-40
2022/11/06 10:36:15;;;;;;;;;;;;;;;;;;5087081;28;19907;-40
2022/11/06 10:38:40;;;;;;;;;;;;;;;;;;5088672;28;19907;-40
2022/11/06 10:41:06;;;;;;;;;;;;;;;;;;5088383;28;19923;-40
2022/11/06 10:43:32;;;;;;;;;;;;;;;;;;5088619;28;19909;-40
2022/11/06 10:45:58;;;;;;;;;;;;;;;;;;5088143;28;19966;-40
2022/11/06 10:48:24;;;;;;;;;;;;;;;;;;5088366;28;19914;-40
2022/11/06 10:50:50;;;;;;;;;;;;;;;;;;5088938;28;20572;-40
2022/11/06 10:53:16;;;;;;;;;;;;;;;;;;5088164;28;19904;-40
2022/11/06 10:55:42;;;;;;;;;;;;;;;;;;5087886;28;20391;-40
2022/11/06 10:58:08;;;;;;;;;;;;;;;;;;5088114;28;19974;-40
2022/11/06 11:00:34;;;;;;;;;;;;;;;;;;5087218;28;19904;-40
2022/11/06 11:03:00;;;;;;;;;;;;;;;;;;5085628;28;19908;-40
2022/11/06 11:05:26;;;;;;;;;;;;;;;;;;5087880;28;19922;-40
2022/11/06 11:07:53;;;;;;;;;;;;;;;;;;5088589;28;19904;-40
2022/11/06 11:10:19;;;;;;;;;;;;;;;;;;5088759;28;19911;-40
2022/11/06 11:12:45;;;;;;;;;;;;;;;;;;5088334;28;19908;-40
2022/11/06 11:15:11;;;;;;;;;;;;;;;;;;5087963;28;20013;-40
2022/11/06 11:17:37;;;;;;;;;;;;;;;;;;5087760;28;19912;-40
2022/11/06 11:20:03;;;;;;;;;;;;;;;;;;5068653;28;19904;-40
2022/11/06 11:22:29;;;;;;;;;;;;;;;;;;5087750;28;19970;-40
2022/11/06 11:24:55;;;;;;;;;;;;;;;;;;5088178;28;19951;-40
2022/11/06 11:27:21;;;;;;;;;;;;;;;;;;5078417;28;19954;-40
2022/11/06 11:29:48;;;;;;;;;;;;;;;;;;5067426;28;19912;-40
2022/11/06 11:32:14;;;;;;;;;;;;;;;;;;5068021;28;19911;-40
2022/11/06 11:34:40;;;;;;;;;;;;;;;;;;5083836;28;19912;-40
2022/11/06 11:37:07;;;;;;;;;;;;;;;;;;5108035;28;19957;-40
2022/11/06 11:39:33;;;;;;;;;;;;;;;;;;5108162;28;19904;-40
2022/11/06 11:41:59;;;;;;;;;;;;;;;;;;5108440;28;19915;-40
2022/11/06 11:44:25;;;;;;;;;;;;;;;;;;5108237;28;19908;-40
2022/11/06 11:46:51;;;;;;;;;;;;;;;;;;5108721;28;20336;-40
2022/11/06 11:49:17;;;;;;;;;;;;;;;;;;5087104;28;19930;-40
2022/11/06 11:51:43;;;;;;;;;;;;;;;;;;5049945;28;19931;-40
2022/11/06 11:54:09;;;;;;;;;;;;;;;;;;5071011;28;19916;-40
2022/11/06 11:56:36;;;;;;;;;;;;;;;;;;5086403;28;19908;-40
2022/11/06 11:59:03;;;;;;;;;;;;;;;;;;5070460;28;19911;-40
2022/11/06 12:01:30;;;;;;;;;;;;;;;;;;5065390;28;20272;-41
2022/11/06 12:03:56;;;;;;;;;;;;;;;;;;5073986;28;19978;-40
2022/11/06 12:06:22;;;;;;;;;;;;;;;;;;5083880;28;19948;-39
2022/11/06 12:08:49;;;;;;;;;;;;;;;;;;5072568;28;19908;-40
2022/11/06 12:11:15;;;;;;;;;;;;;;;;;;5068612;28;19948;-39
2022/11/06 12:13:41;;;;;;;;;;;;;;;;;;5067437;28;19913;-39
2022/11/06 12:16:07;;;;;;;;;;;;;;;;;;5067887;28;19915;-46
2022/11/06 12:18:33;;;;;;;;;;;;;;;;;;5067669;28;19951;-44
2022/11/06 12:20:59;;;;;;;;;;;;;;;;;;5067086;28;19995;-45
2022/11/06 12:23:25;;;;;;;;;;;;;;;;;;5067576;28;19916;-45
2022/11/06 12:25:51;;;;;;;;;;;;;;;;;;5048964;28;19989;-44
2022/11/06 12:28:17;;;;;;;;;;;;;;;;;;5068443;28;19912;-43
2022/11/06 12:30:43;;;;;;;;;;;;;;;;;;5084995;28;19904;-43
2022/11/06 12:33:09;;;;;;;;;;;;;;;;;;5068944;28;19954;-44
2022/11/06 12:35:34;;;;;;;;;;;;;;;;;;5087595;28;20383;-44
2022/11/06 12:38:00;;;;;;;;;;;;;;;;;;5087396;28;19915;-45
2022/11/06 12:40:27;;;;;;;;;;;;;;;;;;5085715;28;20356;-44
2022/11/06 12:42:53;;;;;;;;;;;;;;;;;;5086386;28;20026;-43
2022/11/06 12:45:20;;;;;;;;;;;;;;;;;;5087094;28;19971;-43
2022/11/06 12:47:47;;;;;;;;;;;;;;;;;;5086643;28;19974;-43
2022/11/06 12:50:13;;;;;;;;;;;;;;;;;;5068813;28;19904;-43
2022/11/06 12:52:39;;;;;;;;;;;;;;;;;;5085373;28;19919;-44
2022/11/06 12:55:05;;;;;;;;;;;;;;;;;;5069650;28;19908;-40
2022/11/06 12:57:31;;;;;;;;;;;;;;;;;;5086367;28;19912;-40
2022/11/06 12:59:57;;;;;;;;;;;;;;;;;;5087291;28;19945;-40
2022/11/06 13:02:23;;;;;;;;;;;;;;;;;;5081825;28;20066;-39
2022/11/06 13:04:49;;;;;;;;;;;;;;;;;;5077925;28;19915;-39
2022/11/06 13:07:15;;;;;;;;;;;;;;;;;;5086349;28;19999;-40
2022/11/06 13:09:42;;;;;;;;;;;;;;;;;;5072891;28;19912;-39
2022/11/06 13:12:08;;;;;;;;;;;;;;;;;;5086280;28;19908;-40
2022/11/06 13:14:34;;;;;;;;;;;;;;;;;;5078011;28;19908;-40
2022/11/06 13:17:00;;;;;;;;;;;;;;;;;;5078800;28;19908;-40
2022/11/06 13:19:26;;;;;;;;;;;;;;;;;;5051279;28;19912;-39
2022/11/06 13:21:52;;;;;;;;;;;;;;;;;;5070424;28;20284;-40
2022/11/06 13:24:19;;;;;;;;;;;;;;;;;;5064419;28;19908;-40
2022/11/06 13:26:46;;;;;;;;;;;;;;;;;;5085752;28;19908;-39
2022/11/06 13:29:12;;;;;;;;;;;;;;;;;;5071637;28;20025;-40
2022/11/06 13:31:38;;;;;;;;;;;;;;;;;;5070783;28;19908;-40
2022/11/06 13:34:05;;;;;;;;;;;;;;;;;;5066392;28;19999;-40
2022/11/06 13:36:31;;;;;;;;;;;;;;;;;;5064422;28;19919;-39
2022/11/06 13:38:57;;;;;;;;;;;;;;;;;;5084006;28;20139;-39
2022/11/06 13:41:24;;;;;;;;;;;;;;;;;;5080560;28;19913;-40
2022/11/06 13:43:51;;;;;;;;;;;;;;;;;;5083865;28;20444;-40
2022/11/06 13:46:17;;;;;;;;;;;;;;;;;;5067921;28;19951;-40
2022/11/06 13:48:43;;;;;;;;;;;;;;;;;;5081448;28;20365;-40
2022/11/06 13:51:08;;;;;;;;;;;;;;;;;;5084168;28;19912;-40
2022/11/06 13:53:34;;;;;;;;;;;;;;;;;;5059468;28;19931;-40
2022/11/06 13:56:01;;;;;;;;;;;;;;;;;;5067714;28;19908;-39
2022/11/06 13:58:27;;;;;;;;;;;;;;;;;;5079109;28;19919;-39
2022/11/06 14:00:54;;;;;;;;;;;;;;;;;;5076535;28;19911;-40
2022/11/06 14:03:20;;;;;;;;;;;;;;;;;;5072741;28;20411;-39
2022/11/06 14:05:46;;;;;;;;;;;;;;;;;;5069427;28;19955;-40
2022/11/06 14:08:12;;;;;;;;;;;;;;;;;;5065127;28;19912;-40
2022/11/06 14:10:38;;;;;;;;;;;;;;;;;;5065460;28;19908;-40
2022/11/06 14:13:04;;;;;;;;;;;;;;;;;;5080765;28;20280;-40
2022/11/06 14:15:30;;;;;;;;;;;;;;;;;;5079531;28;19916;-39
2022/11/06 14:17:57;;;;;;;;;;;;;;;;;;5078178;28;19912;-40
2022/11/06 14:20:23;;;;;;;;;;;;;;;;;;5071146;28;19934;-39
2022/11/06 14:22:49;;;;;;;;;;;;;;;;;;5080470;28;19916;-39
2022/11/06 14:25:15;;;;;;;;;;;;;;;;;;5068571;28;19918;-39
2022/11/06 14:27:41;;;;;;;;;;;;;;;;;;5080181;28;19908;-39
2022/11/06 14:30:08;;;;;;;;;;;;;;;;;;5067761;28;20422;-40
2022/11/06 14:32:35;;;;;;;;;;;;;;;;;;5078715;28;20343;-40
2022/11/06 14:35:01;;;;;;;;;;;;;;;;;;5080952;28;19915;-40
2022/11/06 14:37:26;;;;;;;;;;;;;;;;;;5058344;28;20311;-39
2022/11/06 14:39:52;;;;;;;;;;;;;;;;;;5080405;28;19919;-40
2022/11/06 14:42:18;;;;;;;;;;;;;;;;;;5070855;28;19912;-40
2022/11/06 14:44:45;;;;;;;;;;;;;;;;;;5072393;28;19961;-39
2022/11/06 14:47:12;;;;;;;;;;;;;;;;;;5084864;28;19904;-39
2022/11/06 14:49:40;;;;;;;;;;;;;;;;;;5084532;28;19904;-39
2022/11/06 14:52:06;;;;;;;;;;;;;;;;;;5065437;28;19962;-39
2022/11/06 14:54:33;;;;;;;;;;;;;;;;;;5050526;28;19951;-40
2022/11/06 14:56:59;;;;;;;;;;;;;;;;;;5082206;28;19912;-40
2022/11/06 14:59:25;;;;;;;;;;;;;;;;;;5077761;28;19909;-40
2022/11/06 15:01:52;;;;;;;;;;;;;;;;;;5064524;28;19955;-39
2022/11/06 15:04:18;;;;;;;;;;;;;;;;;;5065486;28;20315;-39
2022/11/06 15:06:45;;;;;;;;;;;;;;;;;;5078072;28;19912;-39
2022/11/06 15:09:11;;;;;;;;;;;;;;;;;;5084146;28;20481;-40
2022/11/06 15:11:41;;;;;;;;;;;;;;;;;;5075956;28;19998;-40
2022/11/06 15:14:07;;;;;;;;;;;;;;;;;;5081809;28;19912;-39
2022/11/06 15:16:36;;;;;;;;;;;;;;;;;;5074750;28;19948;-40
2022/11/06 15:19:01;;;;;;;;;;;;;;;;;;5054832;28;20294;-39
2022/11/06 15:21:28;;;;;;;;;;;;;;;;;;5084222;28;19920;-40
2022/11/06 15:23:54;;;;;;;;;;;;;;;;;;5082814;28;19995;-39
2022/11/06 15:26:20;;;;;;;;;;;;;;;;;;5082913;28;20002;-40
2022/11/06 15:28:46;;;;;;;;;;;;;;;;;;5081503;28;20238;-40
2022/11/06 15:31:12;;;;;;;;;;;;;;;;;;5066244;28;19904;-40
2022/11/06 15:33:38;;;;;;;;;;;;;;;;;;5066447;28;19923;-40
2022/11/06 15:36:03;;;;;;;;;;;;;;;;;;5064938;28;20407;-40
2022/11/06 15:38:29;;;;;;;;;;;;;;;;;;5064874;28;19905;-39
2022/11/06 15:40:55;;;;;;;;;;;;;;;;;;5065121;28;20350;-39
2022/11/06 15:43:21;;;;;;;;;;;;;;;;;;5052764;28;19912;-39
2022/11/06 15:45:47;;;;;;;;;;;;;;;;;;5079168;28;19916;-39
2022/11/06 15:48:13;;;;;;;;;;;;;;;;;;5088657;28;19975;-39
2022/11/06 15:50:39;;;;;;;;;;;;;;;;;;5090260;28;19908;-39
2022/11/06 15:53:05;;;;;;;;;;;;;;;;;;5091260;28;20007;-39
2022/11/06 15:55:31;;;;;;;;;;;;;;;;;;5072129;28;19916;-39
2022/11/06 15:57:56;;;;;;;;;;;;;;;;;;5074997;28;19919;-39
2022/11/06 16:00:22;;;;;;;;;;;;;;;;;;5070268;28;19908;-39
2022/11/06 16:02:48;;;;;;;;;;;;;;;;;;5082240;28;19912;-39
2022/11/06 16:05:14;;;;;;;;;;;;;;;;;;5076837;28;19962;-39
2022/11/06 16:07:40;;;;;;;;;;;;;;;;;;5079118;28;19908;-39
2022/11/06 16:10:06;;;;;;;;;;;;;;;;;;5089204;28;19916;-39
2022/11/06 16:12:32;;;;;;;;;;;;;;;;;;5085745;28;19904;-39
2022/11/06 16:14:58;;;;;;;;;;;;;;;;;;5091089;28;20279;-39
2022/11/06 16:17:24;;;;;;;;;;;;;;;;;;5090876;28;19904;-39
2022/11/06 16:19:50;;;;;;;;;;;;;;;;;;5055510;28;19970;-39
2022/11/06 16:22:16;;;;;;;;;;;;;;;;;;5077723;28;19916;-39
2022/11/06 16:24:42;;;;;;;;;;;;;;;;;;5072718;28;19966;-39
2022/11/06 16:27:08;;;;;;;;;;;;;;;;;;5070935;28;19908;-39
2022/11/06 16:29:34;;;;;;;;;;;;;;;;;;5073548;28;19961;-39
2022/11/06 16:32:00;;;;;;;;;;;;;;;;;;5078133;28;19909;-39
2022/11/06 16:34:26;;;;;;;;;;;;;;;;;;5081188;28;19908;-39
2022/11/06 16:36:52;;;;;;;;;;;;;;;;;;5084864;28;19919;-39
2022/11/06 16:39:18;;;;;;;;;;;;;;;;;;5070299;28;19912;-39
2022/11/06 16:41:44;;;;;;;;;;;;;;;;;;5071521;28;20382;-39
2022/11/06 16:44:10;;;;;;;;;;;;;;;;;;5070486;28;19905;-39
2022/11/06 16:46:35;;;;;;;;;;;;;;;;;;5047709;28;19976;-40
2022/11/06 16:49:01;;;;;;;;;;;;;;;;;;5067664;28;19908;-40
2022/11/06 16:51:27;;;;;;;;;;;;;;;;;;5066513;28;19923;-39
2022/11/06 16:53:53;;;;;;;;;;;;;;;;;;5065451;28;19912;-39
2022/11/06 16:56:19;;;;;;;;;;;;;;;;;;5060653;28;19916;-40
2022/11/06 16:58:45;;;;;;;;;;;;;;;;;;5059670;28;19939;-39
2022/11/06 17:01:13;;;;;;;;;;;;;;;;;;5065416;28;19958;-39
2022/11/06 17:03:38;;;;;;;;;;;;;;;;;;5060142;28;20011;-39
2022/11/06 17:06:04;;;;;;;;;;;;;;;;;;5062144;28;19920;-40
2022/11/06 17:08:30;;;;;;;;;;;;;;;;;;5080391;28;19911;-39
2022/11/06 17:10:56;;;;;;;;;;;;;;;;;;5085096;28;19965;-39
2022/11/06 17:13:22;;;;;;;;;;;;;;;;;;5076831;28;19908;-40
2022/11/06 17:15:48;;;;;;;;;;;;;;;;;;5084844;28;19966;-39
2022/11/06 17:18:15;;;;;;;;;;;;;;;;;;5081983;28;19931;-39
2022/11/06 17:20:40;;;;;;;;;;;;;;;;;;5081570;28;20303;-40
2022/11/06 17:23:06;;;;;;;;;;;;;;;;;;5076415;28;19908;-39
2022/11/06 17:25:32;;;;;;;;;;;;;;;;;;5081015;28;19908;-39
2022/11/06 17:27:58;;;;;;;;;;;;;;;;;;5102456;28;19908;-39
2022/11/06 17:30:24;;;;;;;;;;;;;;;;;;5084492;28;19977;-39
2022/11/06 17:32:50;;;;;;;;;;;;;;;;;;5054494;28;19908;-39
2022/11/06 17:35:16;;;;;;;;;;;;;;;;;;5070573;28;19963;-39
2022/11/06 17:37:42;;;;;;;;;;;;;;;;;;5087878;28;19916;-39
2022/11/06 17:40:08;;;;;;;;;;;;;;;;;;5083004;28;19913;-39
2022/11/06 17:42:34;;;;;;;;;;;;;;;;;;5076411;28;19923;-39
2022/11/06 17:45:00;;;;;;;;;;;;;;;;;;5075822;28;19916;-40
2022/11/06 17:47:26;;;;;;;;;;;;;;;;;;5070913;28;19961;-40
2022/11/06 17:49:52;;;;;;;;;;;;;;;;;;5090431;28;19964;-40
2022/11/06 17:52:20;;;;;;;;;;;;;;;;;;5084730;28;19967;-40
2022/11/06 17:54:46;;;;;;;;;;;;;;;;;;5058560;28;19909;-40
2022/11/06 17:57:11;;;;;;;;;;;;;;;;;;5071518;28;19912;-40
2022/11/06 17:59:37;;;;;;;;;;;;;;;;;;5075466;28;20394;-40
2022/11/06 18:02:03;;;;;;;;;;;;;;;;;;5073476;28;19967;-40
2022/11/06 18:04:29;;;;;;;;;;;;;;;;;;5074862;28;19943;-40
2022/11/06 18:06:55;;;;;;;;;;;;;;;;;;5083467;28;20353;-40
2022/11/06 18:09:21;;;;;;;;;;;;;;;;;;5076782;28;20046;-40
2022/11/06 18:11:48;;;;;;;;;;;;;;;;;;5073446;28;19916;-40
2022/11/06 18:14:14;;;;;;;;;;;;;;;;;;5068713;28;20323;-40
2022/11/06 18:16:41;;;;;;;;;;;;;;;;;;5064971;28;20003;-40
2022/11/06 18:19:07;;;;;;;;;;;;;;;;;;5091159;28;19923;-40
2022/11/06 18:21:33;;;;;;;;;;;;;;;;;;5079847;28;19917;-40
2022/11/06 18:23:59;;;;;;;;;;;;;;;;;;5070451;28;20349;-48
2022/11/06 18:26:24;;;;;;;;;;;;;;;;;;5066443;28;19946;-40
2022/11/06 18:28:50;;;;;;;;;;;;;;;;;;5050387;28;20055;-40
2022/11/06 18:31:17;;;;;;;;;;;;;;;;;;5082523;28;19908;-40
2022/11/06 18:33:43;;;;;;;;;;;;;;;;;;5085768;28;19990;-40
2022/11/06 18:36:09;;;;;;;;;;;;;;;;;;5085350;28;20015;-40
2022/11/06 18:38:35;;;;;;;;;;;;;;;;;;5077734;28;19916;-40
2022/11/06 18:41:01;;;;;;;;;;;;;;;;;;5069164;28;19923;-40
2022/11/06 18:43:27;;;;;;;;;;;;;;;;;;5068890;28;19916;-40
2022/11/06 18:45:53;;;;;;;;;;;;;;;;;;5075960;28;20028;-40
2022/11/06 18:48:19;;;;;;;;;;;;;;;;;;5077770;28;19916;-40
2022/11/06 18:50:45;;;;;;;;;;;;;;;;;;5062907;28;19962;-40
2022/11/06 18:53:11;;;;;;;;;;;;;;;;;;5086001;28;19903;-40
2022/11/06 18:55:37;;;;;;;;;;;;;;;;;;5082097;28;19915;-40
2022/11/06 18:58:03;;;;;;;;;;;;;;;;;;5079704;28;19958;-40
2022/11/06 19:00:29;;;;;;;;;;;;;;;;;;5072561;28;19911;-40
2022/11/06 19:02:55;;;;;;;;;;;;;;;;;;5077066;28;19912;-40
2022/11/06 19:05:20;;;;;;;;;;;;;;;;;;5065655;28;19966;-40
2022/11/06 19:07:46;;;;;;;;;;;;;;;;;;5077739;28;19915;-40
2022/11/06 19:10:13;;;;;;;;;;;;;;;;;;5058945;28;19954;-40
2022/11/06 19:12:39;;;;;;;;;;;;;;;;;;5078058;28;20302;-40
2022/11/06 19:15:05;;;;;;;;;;;;;;;;;;5083739;28;19931;-40
2022/11/06 19:17:31;;;;;;;;;;;;;;;;;;5079781;28;19912;-40
2022/11/06 19:19:58;;;;;;;;;;;;;;;;;;5080123;28;19919;-40
2022/11/06 19:22:24;;;;;;;;;;;;;;;;;;5073373;28;19919;-40
2022/11/06 19:24:50;;;;;;;;;;;;;;;;;;5074375;28;20002;-40
2022/11/06 19:27:16;;;;;;;;;;;;;;;;;;5088108;28;20499;-40
2022/11/06 19:29:42;;;;;;;;;;;;;;;;;;5084903;28;19954;-40
2022/11/06 19:32:08;;;;;;;;;;;;;;;;;;5061497;28;20287;-40
2022/11/06 19:34:34;;;;;;;;;;;;;;;;;;5082417;28;19912;-40
2022/11/06 19:37:00;;;;;;;;;;;;;;;;;;5071669;28;20007;-40
2022/11/06 19:39:26;;;;;;;;;;;;;;;;;;5083323;28;19939;-40
2022/11/06 19:41:52;;;;;;;;;;;;;;;;;;5079431;28;20375;-40
2022/11/06 19:44:18;;;;;;;;;;;;;;;;;;5075151;28;19942;-40
2022/11/06 19:46:44;;;;;;;;;;;;;;;;;;5092624;28;19935;-40
2022/11/06 19:49:10;;;;;;;;;;;;;;;;;;5089658;28;19932;-40
2022/11/06 19:51:36;;;;;;;;;;;;;;;;;;5084542;28;20556;-40
2022/11/06 19:54:02;;;;;;;;;;;;;;;;;;5059047;28;19987;-40
2022/11/06 19:56:28;;;;;;;;;;;;;;;;;;5069203;28;19908;-40
2022/11/06 19:58:54;;;;;;;;;;;;;;;;;;5092827;28;19904;-40
2022/11/06 20:01:20;;;;;;;;;;;;;;;;;;5057760;28;20387;-40
2022/11/06 20:03:46;;;;;;;;;;;;;;;;;;5065001;28;20434;-40
2022/11/06 20:06:12;;;;;;;;;;;;;;;;;;5070586;28;20000;-40
2022/11/06 20:08:38;;;;;;;;;;;;;;;;;;5082640;28;19916;-40
2022/11/06 20:11:04;;;;;;;;;;;;;;;;;;5102333;28;19974;-40
2022/11/06 20:13:35;;;;;;;;;;;;;;;;;;5088038;28;19951;-40
2022/11/06 20:16:00;;;;;;;;;;;;;;;;;;5087720;28;20367;-40
2022/11/06 20:18:26;;;;;;;;;;;;;;;;;;5090975;28;19995;-40
2022/11/06 20:20:52;;;;;;;;;;;;;;;;;;5091143;28;19904;-40
2022/11/06 20:23:18;;;;;;;;;;;;;;;;;;5090628;28;19995;-40
2022/11/06 20:25:44;;;;;;;;;;;;;;;;;;5090214;28;20426;-40
2022/11/06 20:28:10;;;;;;;;;;;;;;;;;;5090145;28;19947;-40
2022/11/06 20:30:36;;;;;;;;;;;;;;;;;;5087487;28;19908;-40
2022/11/06 20:33:02;;;;;;;;;;;;;;;;;;5088523;28;19908;-40
2022/11/06 20:35:28;;;;;;;;;;;;;;;;;;5072419;28;19904;-40
2022/11/06 20:37:54;;;;;;;;;;;;;;;;;;5084226;28;20272;-40
2022/11/06 20:40:19;;;;;;;;;;;;;;;;;;5082637;28;19915;-40
2022/11/06 20:42:45;;;;;;;;;;;;;;;;;;5074604;28;19912;-40
2022/11/06 20:45:11;;;;;;;;;;;;;;;;;;5083910;28;20371;-40
2022/11/06 20:47:37;;;;;;;;;;;;;;;;;;5075723;28;19913;-40
2022/11/06 20:50:03;;;;;;;;;;;;;;;;;;5060931;28;19904;-40
2022/11/06 20:52:29;;;;;;;;;;;;;;;;;;5079159;28;20253;-40
2022/11/06 20:54:55;;;;;;;;;;;;;;;;;;5078752;28;19908;-40
2022/11/06 20:57:21;;;;;;;;;;;;;;;;;;5082965;28;19912;-40
2022/11/06 20:59:47;;;;;;;;;;;;;;;;;;5070305;28;19927;-40
2022/11/06 21:02:13;;;;;;;;;;;;;;;;;;5076241;28;19915;-40
2022/11/06 21:04:39;;;;;;;;;;;;;;;;;;5081147;28;19908;-40
2022/11/06 21:07:05;;;;;;;;;;;;;;;;;;5069459;28;19912;-40
2022/11/06 21:09:31;;;;;;;;;;;;;;;;;;5079503;28;20315;-40
2022/11/06 21:11:57;;;;;;;;;;;;;;;;;;5090110;28;19959;-40
2022/11/06 21:14:23;;;;;;;;;;;;;;;;;;5089717;28;20418;-40
2022/11/06 21:16:48;;;;;;;;;;;;;;;;;;5089436;28;19908;-40
2022/11/06 21:19:14;;;;;;;;;;;;;;;;;;5089669;28;20287;-40
2022/11/06 21:21:40;;;;;;;;;;;;;;;;;;5089298;28;19908;-40
2022/11/06 21:24:06;;;;;;;;;;;;;;;;;;5087872;28;19908;-40
2022/11/06 21:26:32;;;;;;;;;;;;;;;;;;5071131;28;20367;-40
2022/11/06 21:28:58;;;;;;;;;;;;;;;;;;5071750;28;20421;-40
2022/11/06 21:31:24;;;;;;;;;;;;;;;;;;5088641;28;19908;-40
2022/11/06 21:33:50;;;;;;;;;;;;;;;;;;5104665;28;19915;-40
2022/11/06 21:36:16;;;;;;;;;;;;;;;;;;5070937;28;19904;-40
2022/11/06 21:38:41;;;;;;;;;;;;;;;;;;5088844;28;19904;-40
2022/11/06 21:41:07;;;;;;;;;;;;;;;;;;5072192;28;19939;-40
2022/11/06 21:43:33;;;;;;;;;;;;;;;;;;5088175;28;20016;-40